Aeroporto :
LOGIN :

Iscrizione | Disclaimer

   EN    FR    IT 

 










Sommario :    VFR   VFR Marginale   IFR   IFR Intensivo   IFR Molto Intensivo
Visibilità : 
Base nubi : 
>= 8 km
>= 3000ft
5 / 8 km
1000 / 3000 ft
1500m / 5 km
500 / 1000 ft
800 / 1500m
200 / 500 ft
< 800m
< 200 ft
Simboli :   Temporali  Nebbia  Neve Forte  Precipitazioni Forti  Vento > 20 kt
SIGMETs :   Varie  Temporali  Ghiacco  Turbolenza  Onda orograficha  Ceneri Vulcaniche






- Altitudine del aeroporto : 13 ft
- Codice IATA : GOA


LIMJ - Genoa Cristoforo Colombo

ULTIMO METAR :
  • 122050Z 05007KT 360V080 9999 BKN045 14/07 Q0995

METARs OBSOLETI :
  • 122020Z 02011KT 9999 BKN050 13/07 Q0995
  • 121950Z 06008KT 020V080 9999 BKN050 12/06 Q0995
  • 121920Z 09008KT 9999 SCT060 12/07 Q0995
  • 121850Z 08006KT 050V170 9999 FEW060 12/07 Q0995
  • 121820Z 31005KT CAVOK 13/06 Q0995

TAF TAF LIMJ
Valido dal 12 a 18 ore il 13 a 18 ore UTC


121700Z 1218/1318 03012KT 9999 SCT030
TEMPO 1218/1222 03015G25KT



MetMap, La meteo Aeronautica in un colpo d'occhio ! - Copyright ORBIFLY Dicembre 2007 - Disclaimer

ORBIFLY MET'MAP TEAM :

Programmazione e sviluppo : Alexandra Zaïnal
Concezione e sviluppo : Baudouin d'Aumeries
Co-Programmazione e sviluppo : Marc-Olivier Méhu
Supporto tecnico e logistico : Manuel Goepfert
Aiuto per la traduzione : Arnaldo La Scala

Contatto : metmap@orbifly.com




FONTI E CREDITI :

   NOAA